sensor_id;sensor_type;location;lat;lon;timestamp;P1;durP1;ratioP1;P2;durP2;ratioP2
41343;SDS011;27089;50.022;7.604;2022-08-21T00:00:26;6.73;;;2.90;;
41343;SDS011;27089;50.022;7.604;2022-08-21T00:02:54;4.57;;;2.90;;
41343;SDS011;27089;50.022;7.604;2022-08-21T00:05:23;7.73;;;3.20;;
41343;SDS011;27089;50.022;7.604;2022-08-21T00:07:50;6.73;;;2.70;;
41343;SDS011;27089;50.022;7.604;2022-08-21T00:10:18;7.00;;;3.00;;
41343;SDS011;27089;50.022;7.604;2022-08-21T00:12:45;6.70;;;3.03;;
41343;SDS011;27089;50.022;7.604;2022-08-21T00:15:14;6.87;;;3.23;;
41343;SDS011;27089;50.022;7.604;2022-08-21T00:17:45;7.67;;;2.90;;
41343;SDS011;27089;50.022;7.604;2022-08-21T00:20:13;9.47;;;3.47;;
41343;SDS011;27089;50.022;7.604;2022-08-21T00:22:42;6.47;;;3.00;;
41343;SDS011;27089;50.022;7.604;2022-08-21T00:25:11;8.10;;;3.27;;
41343;SDS011;27089;50.022;7.604;2022-08-21T00:27:39;8.77;;;2.83;;
41343;SDS011;27089;50.022;7.604;2022-08-21T00:30:07;7.27;;;3.30;;
41343;SDS011;27089;50.022;7.604;2022-08-21T00:32:36;9.00;;;2.90;;
41343;SDS011;27089;50.022;7.604;2022-08-21T00:35:07;6.73;;;3.07;;
41343;SDS011;27089;50.022;7.604;2022-08-21T00:37:37;6.83;;;3.23;;
41343;SDS011;27089;50.022;7.604;2022-08-21T00:40:05;4.20;;;2.80;;
41343;SDS011;27089;50.022;7.604;2022-08-21T00:42:35;9.03;;;2.97;;
41343;SDS011;27089;50.022;7.604;2022-08-21T00:45:02;6.93;;;3.13;;
41343;SDS011;27089;50.022;7.604;2022-08-21T00:47:31;5.17;;;3.10;;
41343;SDS011;27089;50.022;7.604;2022-08-21T00:49:58;9.13;;;3.20;;
41343;SDS011;27089;50.022;7.604;2022-08-21T00:52:28;8.17;;;3.30;;
41343;SDS011;27089;50.022;7.604;2022-08-21T00:54:57;5.53;;;3.20;;
41343;SDS011;27089;50.022;7.604;2022-08-21T00:57:27;8.20;;;3.50;;
41343;SDS011;27089;50.022;7.604;2022-08-21T00:59:58;5.60;;;3.23;;
41343;SDS011;27089;50.022;7.604;2022-08-21T01:02:27;4.70;;;2.63;;
41343;SDS011;27089;50.022;7.604;2022-08-21T01:04:54;5.97;;;3.23;;
41343;SDS011;27089;50.022;7.604;2022-08-21T01:07:22;5.50;;;3.37;;
41343;SDS011;27089;50.022;7.604;2022-08-21T01:09:51;5.03;;;3.10;;
41343;SDS011;27089;50.022;7.604;2022-08-21T01:12:18;8.30;;;3.13;;
41343;SDS011;27089;50.022;7.604;2022-08-21T01:14:45;6.83;;;3.10;;
41343;SDS011;27089;50.022;7.604;2022-08-21T01:17:13;7.93;;;3.40;;
41343;SDS011;27089;50.022;7.604;2022-08-21T01:19:42;6.33;;;3.30;;
41343;SDS011;27089;50.022;7.604;2022-08-21T01:22:11;5.30;;;2.90;;
41343;SDS011;27089;50.022;7.604;2022-08-21T01:24:38;6.50;;;3.57;;
41343;SDS011;27089;50.022;7.604;2022-08-21T01:27:06;5.43;;;2.87;;
41343;SDS011;27089;50.022;7.604;2022-08-21T01:29:34;7.37;;;3.40;;
41343;SDS011;27089;50.022;7.604;2022-08-21T01:32:05;5.80;;;3.23;;
41343;SDS011;27089;50.022;7.604;2022-08-21T01:34:34;7.33;;;3.60;;
41343;SDS011;27089;50.022;7.604;2022-08-21T01:37:04;6.77;;;3.20;;
41343;SDS011;27089;50.022;7.604;2022-08-21T01:39:33;8.40;;;3.87;;
41343;SDS011;27089;50.022;7.604;2022-08-21T01:42:00;7.73;;;3.73;;
41343;SDS011;27089;50.022;7.604;2022-08-21T01:44:28;10.17;;;3.50;;
41343;SDS011;27089;50.022;7.604;2022-08-21T01:46:55;7.57;;;3.20;;
41343;SDS011;27089;50.022;7.604;2022-08-21T01:49:24;8.67;;;3.10;;
41343;SDS011;27089;50.022;7.604;2022-08-21T01:51:51;5.97;;;3.70;;
41343;SDS011;27089;50.022;7.604;2022-08-21T01:54:18;6.60;;;3.40;;
41343;SDS011;27089;50.022;7.604;2022-08-21T01:56:49;6.20;;;3.10;;
41343;SDS011;27089;50.022;7.604;2022-08-21T01:59:18;6.67;;;3.30;;
41343;SDS011;27089;50.022;7.604;2022-08-21T02:01:45;5.10;;;3.17;;
41343;SDS011;27089;50.022;7.604;2022-08-21T02:04:13;5.63;;;3.60;;
41343;SDS011;27089;50.022;7.604;2022-08-21T02:06:40;9.27;;;3.40;;
41343;SDS011;27089;50.022;7.604;2022-08-21T02:09:08;6.27;;;3.50;;
41343;SDS011;27089;50.022;7.604;2022-08-21T02:11:36;6.80;;;3.20;;
41343;SDS011;27089;50.022;7.604;2022-08-21T02:14:06;7.10;;;3.47;;
41343;SDS011;27089;50.022;7.604;2022-08-21T02:16:34;7.57;;;4.00;;
41343;SDS011;27089;50.022;7.604;2022-08-21T02:19:02;5.73;;;3.60;;
41343;SDS011;27089;50.022;7.604;2022-08-21T02:21:29;7.77;;;2.97;;
41343;SDS011;27089;50.022;7.604;2022-08-21T02:23:56;6.70;;;3.30;;
41343;SDS011;27089;50.022;7.604;2022-08-21T02:26:23;9.90;;;3.97;;
41343;SDS011;27089;50.022;7.604;2022-08-21T02:28:51;5.60;;;3.20;;
41343;SDS011;27089;50.022;7.604;2022-08-21T02:31:19;7.63;;;3.50;;
41343;SDS011;27089;50.022;7.604;2022-08-21T02:33:47;5.50;;;3.63;;
41343;SDS011;27089;50.022;7.604;2022-08-21T02:36:14;6.90;;;3.77;;
41343;SDS011;27089;50.022;7.604;2022-08-21T02:38:41;7.73;;;3.83;;
41343;SDS011;27089;50.022;7.604;2022-08-21T02:41:09;6.73;;;3.40;;
41343;SDS011;27089;50.022;7.604;2022-08-21T02:43:38;6.40;;;3.57;;
41343;SDS011;27089;50.022;7.604;2022-08-21T02:46:06;7.03;;;3.63;;
41343;SDS011;27089;50.022;7.604;2022-08-21T02:48:35;6.43;;;3.43;;
41343;SDS011;27089;50.022;7.604;2022-08-21T02:51:04;6.97;;;3.63;;
41343;SDS011;27089;50.022;7.604;2022-08-21T02:53:33;6.50;;;3.70;;
41343;SDS011;27089;50.022;7.604;2022-08-21T02:56:01;6.33;;;3.57;;
41343;SDS011;27089;50.022;7.604;2022-08-21T02:58:31;6.33;;;3.77;;
41343;SDS011;27089;50.022;7.604;2022-08-21T03:01:01;6.37;;;3.77;;
41343;SDS011;27089;50.022;7.604;2022-08-21T03:03:29;6.70;;;3.57;;
41343;SDS011;27089;50.022;7.604;2022-08-21T03:05:57;6.80;;;3.87;;
41343;SDS011;27089;50.022;7.604;2022-08-21T03:08:24;7.47;;;3.73;;
41343;SDS011;27089;50.022;7.604;2022-08-21T03:10:51;8.63;;;3.60;;
41343;SDS011;27089;50.022;7.604;2022-08-21T03:13:19;6.17;;;3.73;;
41343;SDS011;27089;50.022;7.604;2022-08-21T03:15:47;6.07;;;3.17;;
41343;SDS011;27089;50.022;7.604;2022-08-21T03:18:14;7.57;;;3.80;;
41343;SDS011;27089;50.022;7.604;2022-08-21T03:20:42;5.67;;;3.23;;
41343;SDS011;27089;50.022;7.604;2022-08-21T03:23:12;7.87;;;3.50;;
41343;SDS011;27089;50.022;7.604;2022-08-21T03:25:40;5.90;;;3.30;;
41343;SDS011;27089;50.022;7.604;2022-08-21T03:28:11;7.13;;;3.57;;
41343;SDS011;27089;50.022;7.604;2022-08-21T03:30:40;6.37;;;3.43;;
41343;SDS011;27089;50.022;7.604;2022-08-21T03:33:07;8.27;;;3.97;;
41343;SDS011;27089;50.022;7.604;2022-08-21T03:35:34;5.60;;;3.53;;
41343;SDS011;27089;50.022;7.604;2022-08-21T03:38:01;7.10;;;3.90;;
41343;SDS011;27089;50.022;7.604;2022-08-21T03:40:30;6.20;;;3.77;;
41343;SDS011;27089;50.022;7.604;2022-08-21T03:42:57;7.93;;;3.73;;
41343;SDS011;27089;50.022;7.604;2022-08-21T03:45:24;6.80;;;3.17;;
41343;SDS011;27089;50.022;7.604;2022-08-21T03:47:52;7.33;;;3.80;;
41343;SDS011;27089;50.022;7.604;2022-08-21T03:50:22;7.40;;;3.60;;
41343;SDS011;27089;50.022;7.604;2022-08-21T03:52:50;7.43;;;3.70;;
41343;SDS011;27089;50.022;7.604;2022-08-21T03:55:18;4.77;;;2.93;;
41343;SDS011;27089;50.022;7.604;2022-08-21T03:57:46;7.00;;;3.60;;
41343;SDS011;27089;50.022;7.604;2022-08-21T04:00:14;7.10;;;3.50;;
41343;SDS011;27089;50.022;7.604;2022-08-21T04:02:44;5.13;;;3.30;;
41343;SDS011;27089;50.022;7.604;2022-08-21T04:05:12;6.50;;;3.40;;
41343;SDS011;27089;50.022;7.604;2022-08-21T04:07:52;6.03;;;3.70;;
41343;SDS011;27089;50.022;7.604;2022-08-21T04:10:19;8.90;;;3.83;;
41343;SDS011;27089;50.022;7.604;2022-08-21T04:12:48;8.87;;;3.87;;
41343;SDS011;27089;50.022;7.604;2022-08-21T04:15:15;8.13;;;3.73;;
41343;SDS011;27089;50.022;7.604;2022-08-21T04:17:42;8.67;;;4.00;;
41343;SDS011;27089;50.022;7.604;2022-08-21T04:20:09;8.03;;;3.73;;
41343;SDS011;27089;50.022;7.604;2022-08-21T04:22:37;8.03;;;3.70;;
41343;SDS011;27089;50.022;7.604;2022-08-21T04:25:05;7.60;;;3.70;;
41343;SDS011;27089;50.022;7.604;2022-08-21T04:27:33;8.37;;;3.67;;
41343;SDS011;27089;50.022;7.604;2022-08-21T04:30:02;8.60;;;4.03;;
41343;SDS011;27089;50.022;7.604;2022-08-21T04:32:29;6.53;;;3.93;;
41343;SDS011;27089;50.022;7.604;2022-08-21T04:34:59;6.93;;;4.20;;
41343;SDS011;27089;50.022;7.604;2022-08-21T04:37:29;7.87;;;3.50;;
41343;SDS011;27089;50.022;7.604;2022-08-21T04:39:56;6.83;;;3.90;;
41343;SDS011;27089;50.022;7.604;2022-08-21T04:42:23;8.23;;;4.30;;
41343;SDS011;27089;50.022;7.604;2022-08-21T04:44:51;11.47;;;4.57;;
41343;SDS011;27089;50.022;7.604;2022-08-21T04:47:19;10.23;;;4.20;;
41343;SDS011;27089;50.022;7.604;2022-08-21T04:49:47;10.17;;;4.43;;
41343;SDS011;27089;50.022;7.604;2022-08-21T04:52:15;16.73;;;4.80;;
41343;SDS011;27089;50.022;7.604;2022-08-21T04:54:45;17.87;;;5.30;;
41343;SDS011;27089;50.022;7.604;2022-08-21T04:57:14;14.40;;;4.67;;
41343;SDS011;27089;50.022;7.604;2022-08-21T04:59:43;12.23;;;4.37;;
41343;SDS011;27089;50.022;7.604;2022-08-21T05:02:13;22.90;;;4.67;;
41343;SDS011;27089;50.022;7.604;2022-08-21T05:04:43;20.90;;;4.37;;
41343;SDS011;27089;50.022;7.604;2022-08-21T05:07:15;10.80;;;3.90;;
41343;SDS011;27089;50.022;7.604;2022-08-21T05:09:45;12.00;;;4.13;;
41343;SDS011;27089;50.022;7.604;2022-08-21T05:12:12;11.53;;;4.70;;
41343;SDS011;27089;50.022;7.604;2022-08-21T05:14:40;10.63;;;4.07;;
41343;SDS011;27089;50.022;7.604;2022-08-21T05:17:08;9.77;;;3.60;;
41343;SDS011;27089;50.022;7.604;2022-08-21T05:19:35;6.80;;;3.70;;
41343;SDS011;27089;50.022;7.604;2022-08-21T05:22:04;10.40;;;4.03;;
41343;SDS011;27089;50.022;7.604;2022-08-21T05:24:31;7.30;;;3.83;;
41343;SDS011;27089;50.022;7.604;2022-08-21T05:26:58;5.40;;;3.60;;
41343;SDS011;27089;50.022;7.604;2022-08-21T05:29:25;6.07;;;3.70;;
41343;SDS011;27089;50.022;7.604;2022-08-21T05:31:56;9.07;;;4.00;;
41343;SDS011;27089;50.022;7.604;2022-08-21T05:34:23;7.17;;;3.77;;
41343;SDS011;27089;50.022;7.604;2022-08-21T05:36:50;5.47;;;3.90;;
41343;SDS011;27089;50.022;7.604;2022-08-21T05:39:19;9.30;;;3.77;;
41343;SDS011;27089;50.022;7.604;2022-08-21T05:41:46;6.73;;;3.87;;
41343;SDS011;27089;50.022;7.604;2022-08-21T05:44:13;6.50;;;3.70;;
41343;SDS011;27089;50.022;7.604;2022-08-21T05:46:40;7.20;;;3.73;;
41343;SDS011;27089;50.022;7.604;2022-08-21T05:49:07;9.10;;;3.93;;
41343;SDS011;27089;50.022;7.604;2022-08-21T05:51:34;7.43;;;3.87;;
41343;SDS011;27089;50.022;7.604;2022-08-21T05:54:01;6.80;;;3.73;;
41343;SDS011;27089;50.022;7.604;2022-08-21T05:56:30;8.90;;;4.30;;
41343;SDS011;27089;50.022;7.604;2022-08-21T05:58:57;6.80;;;4.80;;
41343;SDS011;27089;50.022;7.604;2022-08-21T06:01:24;7.17;;;4.67;;
41343;SDS011;27089;50.022;7.604;2022-08-21T06:03:51;6.40;;;3.83;;
41343;SDS011;27089;50.022;7.604;2022-08-21T06:06:18;7.90;;;3.63;;
41343;SDS011;27089;50.022;7.604;2022-08-21T06:08:45;6.53;;;4.10;;
41343;SDS011;27089;50.022;7.604;2022-08-21T06:11:12;7.47;;;4.00;;
41343;SDS011;27089;50.022;7.604;2022-08-21T06:13:40;7.13;;;4.10;;
41343;SDS011;27089;50.022;7.604;2022-08-21T06:16:08;6.37;;;3.97;;
41343;SDS011;27089;50.022;7.604;2022-08-21T06:18:38;7.73;;;4.10;;
41343;SDS011;27089;50.022;7.604;2022-08-21T06:21:05;6.37;;;4.67;;
41343;SDS011;27089;50.022;7.604;2022-08-21T06:23:33;7.60;;;4.40;;
41343;SDS011;27089;50.022;7.604;2022-08-21T06:26:01;8.00;;;4.20;;
41343;SDS011;27089;50.022;7.604;2022-08-21T06:28:29;8.10;;;4.07;;
41343;SDS011;27089;50.022;7.604;2022-08-21T06:30:58;9.83;;;4.30;;
41343;SDS011;27089;50.022;7.604;2022-08-21T06:33:25;10.03;;;4.07;;
41343;SDS011;27089;50.022;7.604;2022-08-21T06:35:52;6.70;;;4.37;;
41343;SDS011;27089;50.022;7.604;2022-08-21T06:38:19;11.33;;;4.60;;
41343;SDS011;27089;50.022;7.604;2022-08-21T06:40:46;6.70;;;4.07;;
41343;SDS011;27089;50.022;7.604;2022-08-21T06:43:14;8.77;;;3.83;;
41343;SDS011;27089;50.022;7.604;2022-08-21T06:45:43;7.03;;;4.10;;
41343;SDS011;27089;50.022;7.604;2022-08-21T06:48:12;6.47;;;4.00;;
41343;SDS011;27089;50.022;7.604;2022-08-21T06:50:39;6.07;;;4.00;;
41343;SDS011;27089;50.022;7.604;2022-08-21T06:53:07;7.07;;;3.70;;
41343;SDS011;27089;50.022;7.604;2022-08-21T06:55:36;7.30;;;3.60;;
41343;SDS011;27089;50.022;7.604;2022-08-21T06:58:03;5.53;;;3.60;;
41343;SDS011;27089;50.022;7.604;2022-08-21T07:00:31;10.70;;;4.00;;
41343;SDS011;27089;50.022;7.604;2022-08-21T07:02:59;8.20;;;4.63;;
41343;SDS011;27089;50.022;7.604;2022-08-21T07:05:28;7.17;;;3.83;;
41343;SDS011;27089;50.022;7.604;2022-08-21T07:07:56;9.83;;;3.87;;
41343;SDS011;27089;50.022;7.604;2022-08-21T07:10:23;9.40;;;3.93;;
41343;SDS011;27089;50.022;7.604;2022-08-21T07:12:51;9.10;;;4.57;;
41343;SDS011;27089;50.022;7.604;2022-08-21T07:15:20;7.93;;;3.87;;
41343;SDS011;27089;50.022;7.604;2022-08-21T07:17:47;8.40;;;4.00;;
41343;SDS011;27089;50.022;7.604;2022-08-21T07:20:14;9.83;;;4.13;;
41343;SDS011;27089;50.022;7.604;2022-08-21T07:22:42;10.20;;;3.83;;
41343;SDS011;27089;50.022;7.604;2022-08-21T07:25:09;9.23;;;4.10;;
41343;SDS011;27089;50.022;7.604;2022-08-21T07:27:36;8.53;;;3.83;;
41343;SDS011;27089;50.022;7.604;2022-08-21T07:30:04;6.50;;;3.63;;
41343;SDS011;27089;50.022;7.604;2022-08-21T07:32:32;6.77;;;3.57;;
41343;SDS011;27089;50.022;7.604;2022-08-21T07:34:59;8.55;;;3.85;;
41343;SDS011;27089;50.022;7.604;2022-08-21T07:37:26;10.73;;;4.22;;
41343;SDS011;27089;50.022;7.604;2022-08-21T07:39:54;12.27;;;4.63;;
41343;SDS011;27089;50.022;7.604;2022-08-21T07:42:21;11.30;;;4.10;;
41343;SDS011;27089;50.022;7.604;2022-08-21T07:44:48;9.55;;;3.60;;
41343;SDS011;27089;50.022;7.604;2022-08-21T07:47:15;14.20;;;5.20;;
41343;SDS011;27089;50.022;7.604;2022-08-21T07:49:42;11.02;;;5.25;;
41343;SDS011;27089;50.022;7.604;2022-08-21T07:52:11;11.75;;;6.07;;
41343;SDS011;27089;50.022;7.604;2022-08-21T07:54:38;16.20;;;5.90;;
41343;SDS011;27089;50.022;7.604;2022-08-21T07:57:06;11.20;;;6.32;;
41343;SDS011;27089;50.022;7.604;2022-08-21T07:59:34;13.20;;;6.60;;
41343;SDS011;27089;50.022;7.604;2022-08-21T08:02:01;12.35;;;6.07;;
41343;SDS011;27089;50.022;7.604;2022-08-21T08:04:28;12.88;;;6.60;;
41343;SDS011;27089;50.022;7.604;2022-08-21T08:06:55;14.23;;;6.53;;
41343;SDS011;27089;50.022;7.604;2022-08-21T08:09:22;15.93;;;6.40;;
41343;SDS011;27089;50.022;7.604;2022-08-21T08:11:49;8.60;;;5.90;;
41343;SDS011;27089;50.022;7.604;2022-08-21T08:14:18;10.80;;;5.25;;
41343;SDS011;27089;50.022;7.604;2022-08-21T08:16:45;12.57;;;4.85;;
41343;SDS011;27089;50.022;7.604;2022-08-21T08:19:12;10.32;;;4.22;;
41343;SDS011;27089;50.022;7.604;2022-08-21T08:21:39;11.88;;;4.68;;
41343;SDS011;27089;50.022;7.604;2022-08-21T08:24:06;7.40;;;3.45;;
41343;SDS011;27089;50.022;7.604;2022-08-21T08:26:33;8.50;;;3.05;;
41343;SDS011;27089;50.022;7.604;2022-08-21T08:29:00;6.38;;;3.20;;
41343;SDS011;27089;50.022;7.604;2022-08-21T08:31:28;7.82;;;2.80;;
41343;SDS011;27089;50.022;7.604;2022-08-21T08:33:55;5.95;;;2.83;;
41343;SDS011;27089;50.022;7.604;2022-08-21T08:36:30;9.63;;;2.67;;
41343;SDS011;27089;50.022;7.604;2022-08-21T08:38:59;8.65;;;2.80;;
41343;SDS011;27089;50.022;7.604;2022-08-21T08:41:27;7.70;;;2.40;;
41343;SDS011;27089;50.022;7.604;2022-08-21T08:43:57;8.23;;;2.65;;
41343;SDS011;27089;50.022;7.604;2022-08-21T08:46:30;6.47;;;2.78;;
41343;SDS011;27089;50.022;7.604;2022-08-21T08:49:02;7.28;;;2.92;;
41343;SDS011;27089;50.022;7.604;2022-08-21T08:51:34;9.43;;;2.92;;
41343;SDS011;27089;50.022;7.604;2022-08-21T08:54:09;6.57;;;3.47;;
41343;SDS011;27089;50.022;7.604;2022-08-21T08:56:40;8.77;;;3.53;;
41343;SDS011;27089;50.022;7.604;2022-08-21T08:59:07;9.57;;;3.00;;
41343;SDS011;27089;50.022;7.604;2022-08-21T09:01:40;5.32;;;2.92;;
41343;SDS011;27089;50.022;7.604;2022-08-21T09:04:09;7.28;;;2.50;;
41343;SDS011;27089;50.022;7.604;2022-08-21T09:06:44;5.93;;;2.67;;
41343;SDS011;27089;50.022;7.604;2022-08-21T09:09:34;7.28;;;2.95;;
41343;SDS011;27089;50.022;7.604;2022-08-21T09:12:10;6.43;;;2.55;;
41343;SDS011;27089;50.022;7.604;2022-08-21T09:14:46;8.27;;;3.05;;
41343;SDS011;27089;50.022;7.604;2022-08-21T09:17:26;6.03;;;2.30;;
41343;SDS011;27089;50.022;7.604;2022-08-21T09:20:08;7.68;;;3.35;;
41343;SDS011;27089;50.022;7.604;2022-08-21T09:22:47;8.48;;;3.00;;
41343;SDS011;27089;50.022;7.604;2022-08-21T09:25:23;7.00;;;2.85;;
41343;SDS011;27089;50.022;7.604;2022-08-21T09:27:52;7.35;;;2.90;;
41343;SDS011;27089;50.022;7.604;2022-08-21T09:30:23;8.57;;;2.90;;
41343;SDS011;27089;50.022;7.604;2022-08-21T09:32:53;8.70;;;2.65;;
41343;SDS011;27089;50.022;7.604;2022-08-21T09:35:21;7.25;;;3.00;;
41343;SDS011;27089;50.022;7.604;2022-08-21T09:37:51;6.10;;;2.63;;
41343;SDS011;27089;50.022;7.604;2022-08-21T09:43:05;7.55;;;2.67;;
41343;SDS011;27089;50.022;7.604;2022-08-21T09:45:44;6.55;;;2.90;;
41343;SDS011;27089;50.022;7.604;2022-08-21T09:48:15;8.27;;;2.92;;
41343;SDS011;27089;50.022;7.604;2022-08-21T09:50:45;6.60;;;3.10;;
41343;SDS011;27089;50.022;7.604;2022-08-21T09:53:17;7.82;;;2.78;;
41343;SDS011;27089;50.022;7.604;2022-08-21T09:55:47;8.35;;;3.17;;
41343;SDS011;27089;50.022;7.604;2022-08-21T09:58:36;5.57;;;2.90;;
41343;SDS011;27089;50.022;7.604;2022-08-21T10:01:05;7.50;;;3.00;;
41343;SDS011;27089;50.022;7.604;2022-08-21T10:03:34;6.40;;;2.88;;
41343;SDS011;27089;50.022;7.604;2022-08-21T10:06:02;7.85;;;2.47;;
41343;SDS011;27089;50.022;7.604;2022-08-21T10:08:34;7.15;;;2.85;;
41343;SDS011;27089;50.022;7.604;2022-08-21T10:11:04;7.07;;;2.83;;
41343;SDS011;27089;50.022;7.604;2022-08-21T10:13:37;4.57;;;2.45;;
41343;SDS011;27089;50.022;7.604;2022-08-21T10:16:15;5.78;;;2.60;;
41343;SDS011;27089;50.022;7.604;2022-08-21T10:19:04;5.50;;;2.25;;
41343;SDS011;27089;50.022;7.604;2022-08-21T10:21:57;5.45;;;2.20;;
41343;SDS011;27089;50.022;7.604;2022-08-21T10:24:29;5.15;;;2.25;;
41343;SDS011;27089;50.022;7.604;2022-08-21T10:27:04;7.60;;;2.50;;
41343;SDS011;27089;50.022;7.604;2022-08-21T10:29:43;6.60;;;2.22;;
41343;SDS011;27089;50.022;7.604;2022-08-21T10:32:21;8.20;;;2.78;;
41343;SDS011;27089;50.022;7.604;2022-08-21T10:34:59;8.05;;;2.70;;
41343;SDS011;27089;50.022;7.604;2022-08-21T10:37:37;7.35;;;2.38;;
41343;SDS011;27089;50.022;7.604;2022-08-21T10:40:14;5.80;;;2.53;;
41343;SDS011;27089;50.022;7.604;2022-08-21T10:42:49;6.93;;;2.72;;
41343;SDS011;27089;50.022;7.604;2022-08-21T10:45:33;5.20;;;2.67;;
41343;SDS011;27089;50.022;7.604;2022-08-21T10:48:10;5.32;;;2.10;;
41343;SDS011;27089;50.022;7.604;2022-08-21T10:50:44;4.90;;;2.38;;
41343;SDS011;27089;50.022;7.604;2022-08-21T10:53:20;5.88;;;2.65;;
41343;SDS011;27089;50.022;7.604;2022-08-21T10:55:59;5.65;;;2.20;;
41343;SDS011;27089;50.022;7.604;2022-08-21T10:58:31;3.85;;;1.85;;
41343;SDS011;27089;50.022;7.604;2022-08-21T11:01:04;6.57;;;1.90;;
41343;SDS011;27089;50.022;7.604;2022-08-21T11:03:39;5.00;;;2.05;;
41343;SDS011;27089;50.022;7.604;2022-08-21T11:06:13;5.13;;;2.20;;
41343;SDS011;27089;50.022;7.604;2022-08-21T11:08:45;6.60;;;2.17;;
41343;SDS011;27089;50.022;7.604;2022-08-21T11:11:19;6.57;;;2.28;;
41343;SDS011;27089;50.022;7.604;2022-08-21T11:13:49;5.47;;;2.10;;
41343;SDS011;27089;50.022;7.604;2022-08-21T11:16:21;4.53;;;2.13;;
41343;SDS011;27089;50.022;7.604;2022-08-21T11:19:00;6.57;;;2.13;;
41343;SDS011;27089;50.022;7.604;2022-08-21T11:21:34;3.70;;;2.03;;
41343;SDS011;27089;50.022;7.604;2022-08-21T11:24:12;5.45;;;2.13;;
41343;SDS011;27089;50.022;7.604;2022-08-21T11:26:49;4.93;;;2.13;;
41343;SDS011;27089;50.022;7.604;2022-08-21T11:29:21;5.30;;;2.25;;
41343;SDS011;27089;50.022;7.604;2022-08-21T11:31:56;5.40;;;2.38;;
41343;SDS011;27089;50.022;7.604;2022-08-21T11:34:41;5.55;;;1.80;;
41343;SDS011;27089;50.022;7.604;2022-08-21T11:37:20;5.55;;;2.00;;
41343;SDS011;27089;50.022;7.604;2022-08-21T11:39:58;5.57;;;1.83;;
41343;SDS011;27089;50.022;7.604;2022-08-21T11:42:31;5.47;;;2.40;;
41343;SDS011;27089;50.022;7.604;2022-08-21T11:45:10;5.60;;;1.88;;
41343;SDS011;27089;50.022;7.604;2022-08-21T11:47:48;6.53;;;2.15;;
41343;SDS011;27089;50.022;7.604;2022-08-21T11:50:23;3.88;;;1.83;;
41343;SDS011;27089;50.022;7.604;2022-08-21T11:52:56;3.50;;;1.80;;
41343;SDS011;27089;50.022;7.604;2022-08-21T11:55:28;4.45;;;1.95;;
41343;SDS011;27089;50.022;7.604;2022-08-21T11:58:00;5.10;;;2.00;;
41343;SDS011;27089;50.022;7.604;2022-08-21T12:00:32;6.28;;;2.10;;
41343;SDS011;27089;50.022;7.604;2022-08-21T12:03:06;3.50;;;1.63;;
41343;SDS011;27089;50.022;7.604;2022-08-21T12:05:38;4.82;;;2.00;;
41343;SDS011;27089;50.022;7.604;2022-08-21T12:11:23;4.85;;;1.83;;
41343;SDS011;27089;50.022;7.604;2022-08-21T12:13:53;4.15;;;2.22;;
41343;SDS011;27089;50.022;7.604;2022-08-21T12:16:28;5.03;;;2.00;;
41343;SDS011;27089;50.022;7.604;2022-08-21T12:19:02;7.00;;;2.03;;
41343;SDS011;27089;50.022;7.604;2022-08-21T12:21:30;4.75;;;1.70;;
41343;SDS011;27089;50.022;7.604;2022-08-21T12:24:03;3.60;;;1.50;;
41343;SDS011;27089;50.022;7.604;2022-08-21T12:26:47;3.60;;;1.67;;
41343;SDS011;27089;50.022;7.604;2022-08-21T12:29:16;4.05;;;1.63;;
41343;SDS011;27089;50.022;7.604;2022-08-21T12:31:54;3.80;;;1.70;;
41343;SDS011;27089;50.022;7.604;2022-08-21T12:34:24;4.22;;;1.98;;
41343;SDS011;27089;50.022;7.604;2022-08-21T12:36:59;4.68;;;1.75;;
41343;SDS011;27089;50.022;7.604;2022-08-21T12:39:31;3.58;;;1.70;;
41343;SDS011;27089;50.022;7.604;2022-08-21T12:42:00;6.10;;;2.10;;
41343;SDS011;27089;50.022;7.604;2022-08-21T12:44:37;5.50;;;2.20;;
41343;SDS011;27089;50.022;7.604;2022-08-21T12:50:13;3.67;;;1.65;;
41343;SDS011;27089;50.022;7.604;2022-08-21T12:52:48;4.13;;;1.80;;
41343;SDS011;27089;50.022;7.604;2022-08-21T12:55:27;4.55;;;1.65;;
41343;SDS011;27089;50.022;7.604;2022-08-21T12:57:55;5.40;;;1.88;;
41343;SDS011;27089;50.022;7.604;2022-08-21T13:03:54;4.28;;;1.60;;
41343;SDS011;27089;50.022;7.604;2022-08-21T13:06:24;4.20;;;1.50;;
41343;SDS011;27089;50.022;7.604;2022-08-21T13:08:55;6.32;;;1.50;;
41343;SDS011;27089;50.022;7.604;2022-08-21T13:11:31;4.28;;;1.60;;
41343;SDS011;27089;50.022;7.604;2022-08-21T13:13:59;3.67;;;1.60;;
41343;SDS011;27089;50.022;7.604;2022-08-21T13:16:28;4.60;;;1.80;;
41343;SDS011;27089;50.022;7.604;2022-08-21T13:18:57;4.90;;;1.65;;
41343;SDS011;27089;50.022;7.604;2022-08-21T13:21:30;4.57;;;1.60;;
41343;SDS011;27089;50.022;7.604;2022-08-21T13:24:09;3.20;;;1.80;;
41343;SDS011;27089;50.022;7.604;2022-08-21T13:26:43;3.35;;;1.70;;
41343;SDS011;27089;50.022;7.604;2022-08-21T13:29:11;3.67;;;1.60;;
41343;SDS011;27089;50.022;7.604;2022-08-21T13:31:40;5.70;;;1.80;;
41343;SDS011;27089;50.022;7.604;2022-08-21T13:34:15;4.65;;;1.50;;
41343;SDS011;27089;50.022;7.604;2022-08-21T13:36:43;5.53;;;1.80;;
41343;SDS011;27089;50.022;7.604;2022-08-21T13:39:12;2.55;;;1.45;;
41343;SDS011;27089;50.022;7.604;2022-08-21T13:41:45;3.22;;;1.60;;
41343;SDS011;27089;50.022;7.604;2022-08-21T13:44:15;4.30;;;1.80;;
41343;SDS011;27089;50.022;7.604;2022-08-21T13:46:45;2.40;;;1.40;;
41343;SDS011;27089;50.022;7.604;2022-08-21T13:49:13;3.00;;;1.73;;
41343;SDS011;27089;50.022;7.604;2022-08-21T13:51:43;3.97;;;1.58;;
41343;SDS011;27089;50.022;7.604;2022-08-21T13:54:15;3.97;;;1.40;;
41343;SDS011;27089;50.022;7.604;2022-08-21T13:56:49;3.17;;;1.50;;
41343;SDS011;27089;50.022;7.604;2022-08-21T13:59:23;3.17;;;1.40;;
41343;SDS011;27089;50.022;7.604;2022-08-21T14:01:52;2.58;;;1.70;;
41343;SDS011;27089;50.022;7.604;2022-08-21T14:04:25;3.40;;;1.50;;
41343;SDS011;27089;50.022;7.604;2022-08-21T14:06:57;3.33;;;1.50;;
41343;SDS011;27089;50.022;7.604;2022-08-21T14:09:25;3.63;;;1.58;;
41343;SDS011;27089;50.022;7.604;2022-08-21T14:11:57;6.63;;;1.70;;
41343;SDS011;27089;50.022;7.604;2022-08-21T14:14:27;2.35;;;1.30;;
41343;SDS011;27089;50.022;7.604;2022-08-21T14:16:58;2.35;;;1.40;;
41343;SDS011;27089;50.022;7.604;2022-08-21T14:19:36;3.38;;;1.40;;
41343;SDS011;27089;50.022;7.604;2022-08-21T14:22:21;4.55;;;1.55;;
41343;SDS011;27089;50.022;7.604;2022-08-21T14:24:58;4.32;;;1.50;;
41343;SDS011;27089;50.022;7.604;2022-08-21T14:27:28;2.03;;;1.30;;
41343;SDS011;27089;50.022;7.604;2022-08-21T14:29:57;4.05;;;1.58;;
41343;SDS011;27089;50.022;7.604;2022-08-21T14:32:28;1.85;;;1.15;;
41343;SDS011;27089;50.022;7.604;2022-08-21T14:34:56;3.40;;;1.33;;
41343;SDS011;27089;50.022;7.604;2022-08-21T14:37:36;3.65;;;1.30;;
41343;SDS011;27089;50.022;7.604;2022-08-21T14:40:03;4.38;;;1.50;;
41343;SDS011;27089;50.022;7.604;2022-08-21T14:42:32;4.90;;;1.50;;
41343;SDS011;27089;50.022;7.604;2022-08-21T14:45:01;2.60;;;1.58;;
41343;SDS011;27089;50.022;7.604;2022-08-21T14:47:33;2.72;;;1.40;;
41343;SDS011;27089;50.022;7.604;2022-08-21T14:50:02;2.65;;;1.38;;
41343;SDS011;27089;50.022;7.604;2022-08-21T14:52:29;2.30;;;1.42;;
41343;SDS011;27089;50.022;7.604;2022-08-21T14:54:57;2.80;;;1.52;;
41343;SDS011;27089;50.022;7.604;2022-08-21T14:57:29;2.08;;;1.33;;
41343;SDS011;27089;50.022;7.604;2022-08-21T15:00:03;3.22;;;1.60;;
41343;SDS011;27089;50.022;7.604;2022-08-21T15:02:31;1.70;;;1.27;;
41343;SDS011;27089;50.022;7.604;2022-08-21T15:04:58;3.15;;;1.40;;
41343;SDS011;27089;50.022;7.604;2022-08-21T15:07:25;2.75;;;1.42;;
41343;SDS011;27089;50.022;7.604;2022-08-21T15:09:52;3.53;;;1.60;;
41343;SDS011;27089;50.022;7.604;2022-08-21T15:12:19;3.65;;;1.40;;
41343;SDS011;27089;50.022;7.604;2022-08-21T15:14:46;3.53;;;1.15;;